Time;durP1;ratioP1;P1;durP2;ratioP2;P2;SDS_P1;SDS_P2;PMS_P1;PMS_P2;Temp;Humidity;BMP_temperature;BMP_pressure;BME280_temperature;BME280_humidity;BME280_pressure;Samples;Min_cycle;Max_cycle;Signal;HPM_P1;HPM_P2
2021/08/08 00:00:08;;;;;;;;;;;;;;;17.84;100.00;97061.19;5054949;28;19956;-78
2021/08/08 00:02:39;;;;;;;;;;;;;;;17.86;100.00;97075.56;5054823;28;20007;-78
2021/08/08 00:05:10;;;;;;;;;;;;;;;17.76;100.00;97079.22;5054848;28;19935;-79
2021/08/08 00:07:37;;;;;;;;;;;;;;;17.89;100.00;97070.94;5054883;28;20288;-78
2021/08/08 00:10:06;;;;;;;;;;;;;;;18.06;100.00;97070.84;5054622;28;19992;-78
2021/08/08 00:12:34;;;;;;;;;;;;;;;17.91;100.00;97069.16;5054860;28;19925;-79
2021/08/08 00:15:01;;;;;;;;;;;;;;;18.24;100.00;97071.03;5054670;28;19964;-79
2021/08/08 00:17:28;;;;;;;;;;;;;;;17.94;100.00;97078.63;5053647;28;20295;-79
2021/08/08 00:19:56;;;;;;;;;;;;;;;18.06;100.00;97065.97;5054711;28;20015;-79
2021/08/08 00:22:23;;;;;;;;;;;;;;;17.96;100.00;97057.03;5054688;28;19925;-79
2021/08/08 00:24:50;;;;;;;;;;;;;;;17.55;100.00;97069.53;5054349;28;19975;-79
2021/08/08 00:27:18;;;;;;;;;;;;;;;17.87;100.00;97056.59;5054302;28;20349;-79
2021/08/08 00:29:45;;;;;;;;;;;;;;;18.02;100.00;97056.25;5053082;28;19968;-79
2021/08/08 00:32:12;;;;;;;;;;;;;;;17.75;100.00;97058.66;5054150;28;19925;-78
2021/08/08 00:34:41;;;;;;;;;;;;;;;17.50;100.00;97059.00;5052531;28;19974;-78
2021/08/08 00:37:09;;;;;;;;;;;;;;;17.66;100.00;97061.03;5053722;28;19940;-78
2021/08/08 00:39:36;;;;;;;;;;;;;;;17.66;100.00;97061.03;5088167;28;20411;-79
2021/08/08 00:42:03;;;;;;;;;;;;;;;17.73;100.00;97068.94;5073597;28;19947;-79
2021/08/08 00:44:31;;;;;;;;;;;;;;;17.72;100.00;97058.94;5059409;28;20045;-79
2021/08/08 00:46:59;;;;;;;;;;;;;;;17.71;100.00;97046.09;5063902;28;19925;-80
2021/08/08 00:49:27;;;;;;;;;;;;;;;17.64;100.00;97055.13;5069176;28;20018;-79
2021/08/08 00:51:56;;;;;;;;;;;;;;;17.14;100.00;97048.78;5072984;28;19948;-79
2021/08/08 00:54:28;;;;;;;;;;;;;;;17.16;100.00;97051.88;5072818;28;19925;-79
2021/08/08 00:56:58;;;;;;;;;;;;;;;17.51;100.00;97057.72;5056532;28;20352;-79
2021/08/08 00:59:25;;;;;;;;;;;;;;;17.74;100.00;97064.84;5072784;28;19924;-79
2021/08/08 01:01:54;;;;;;;;;;;;;;;17.55;100.00;97052.59;5072739;28;20403;-79
2021/08/08 01:04:31;;;;;;;;;;;;;;;17.77;100.00;97049.66;5106841;28;19929;-79
2021/08/08 01:07:15;;;;;;;;;;;;;;;17.81;100.00;97058.66;5049560;28;20400;-79
2021/08/08 01:09:44;;;;;;;;;;;;;;;17.79;100.00;97047.88;5050531;28;19947;-80
2021/08/08 01:12:13;;;;;;;;;;;;;;;17.71;100.00;97060.22;5072833;28;19993;-79
2021/08/08 01:14:46;;;;;;;;;;;;;;;17.87;100.00;97051.69;5042057;28;19935;-79
2021/08/08 01:17:14;;;;;;;;;;;;;;;17.99;100.00;97044.69;5062089;28;19968;-79
2021/08/08 01:19:47;;;;;;;;;;;;;;;17.48;100.00;97050.28;5056138;28;19931;-79
2021/08/08 01:22:14;;;;;;;;;;;;;;;17.48;100.00;97055.91;5072478;28;19924;-79
2021/08/08 01:24:41;;;;;;;;;;;;;;;17.11;100.00;97049.81;5072684;28;20299;-79
2021/08/08 01:27:10;;;;;;;;;;;;;;;17.53;100.00;97043.84;5089023;28;19931;-79
2021/08/08 01:29:39;;;;;;;;;;;;;;;17.54;100.00;97045.38;5061989;28;19924;-79
2021/08/08 01:32:07;;;;;;;;;;;;;;;17.75;100.00;97040.97;5066557;28;19970;-79
2021/08/08 01:34:36;;;;;;;;;;;;;;;17.54;100.00;97036.91;5061934;28;19971;-79
2021/08/08 01:37:07;;;;;;;;;;;;;;;17.52;100.00;97040.25;5089132;28;19947;-79
2021/08/08 01:39:35;;;;;;;;;;;;;;;17.68;100.00;97047.91;5072321;28;20066;-79
2021/08/08 01:42:07;;;;;;;;;;;;;;;17.60;100.00;97046.91;5055853;28;19965;-79
2021/08/08 01:44:44;;;;;;;;;;;;;;;17.59;100.00;97041.78;5072218;28;19928;-79
2021/08/08 01:47:13;;;;;;;;;;;;;;;17.45;100.00;97040.03;5106239;28;20279;-79
2021/08/08 01:49:43;;;;;;;;;;;;;;;17.20;100.00;97036.22;5072000;28;20022;-79
2021/08/08 01:52:12;;;;;;;;;;;;;;;17.34;100.00;97034.41;5072428;28;20012;-79
2021/08/08 01:54:47;;;;;;;;;;;;;;;17.59;100.00;97038.97;5055673;28;19928;-79
2021/08/08 01:57:20;;;;;;;;;;;;;;;17.39;100.00;97030.78;5072286;28;20252;-79
2021/08/08 01:59:53;;;;;;;;;;;;;;;17.45;100.00;97023.88;5056374;28;20011;-79
2021/08/08 02:02:20;;;;;;;;;;;;;;;17.44;100.00;97032.84;5039230;28;19932;-79
2021/08/08 02:04:56;;;;;;;;;;;;;;;17.47;100.00;97023.34;5105851;28;19950;-79
2021/08/08 02:07:23;;;;;;;;;;;;;;;17.39;100.00;97008.19;5073202;28;19925;-79
2021/08/08 02:09:54;;;;;;;;;;;;;;;17.31;100.00;97038.25;5055429;28;19931;-79
2021/08/08 02:12:24;;;;;;;;;;;;;;;17.33;100.00;97027.19;5072095;28;19924;-79
2021/08/08 02:14:52;;;;;;;;;;;;;;;17.24;100.00;97033.13;5071851;28;19930;-79
2021/08/08 02:17:29;;;;;;;;;;;;;;;17.38;100.00;97046.19;5072125;28;19960;-79
2021/08/08 02:19:57;;;;;;;;;;;;;;;17.35;100.00;97047.22;5071996;28;19925;-79
2021/08/08 02:22:24;;;;;;;;;;;;;;;17.59;100.00;97044.59;5072056;28;19947;-79
2021/08/08 02:24:51;;;;;;;;;;;;;;;17.65;100.00;97042.53;5105769;28;19968;-79
2021/08/08 02:27:24;;;;;;;;;;;;;;;17.66;100.00;97047.66;5077197;28;19924;-79
2021/08/08 02:30:05;;;;;;;;;;;;;;;17.44;100.00;97044.13;5072149;28;19951;-79
2021/08/08 02:32:33;;;;;;;;;;;;;;;17.67;100.00;97048.44;5071876;28;19929;-79
2021/08/08 02:35:00;;;;;;;;;;;;;;;17.54;100.00;97045.38;5059353;28;19925;-79
2021/08/08 02:37:27;;;;;;;;;;;;;;;17.47;100.00;97054.41;5035990;28;19995;-79
2021/08/08 02:39:55;;;;;;;;;;;;;;;17.54;100.00;97053.84;5065828;28;20429;-79
2021/08/08 02:42:22;;;;;;;;;;;;;;;17.62;100.00;97054.84;5068787;28;20372;-79
2021/08/08 02:44:49;;;;;;;;;;;;;;;17.57;100.00;97064.88;5059115;28;20061;-79
2021/08/08 02:47:17;;;;;;;;;;;;;;;17.71;100.00;97057.41;5059023;28;20265;-79
2021/08/08 02:49:44;;;;;;;;;;;;;;;17.68;100.00;97067.69;5048896;28;19925;-79
2021/08/08 02:52:12;;;;;;;;;;;;;;;17.72;100.00;97071.00;5054056;28;20496;-79
2021/08/08 02:54:41;;;;;;;;;;;;;;;17.79;100.00;97070.47;5088292;28;19928;-79
2021/08/08 02:57:08;;;;;;;;;;;;;;;17.55;100.00;97073.09;5055217;28;19925;-79
2021/08/08 02:59:36;;;;;;;;;;;;;;;17.72;100.00;97075.91;5071881;28;20020;-79
2021/08/08 03:02:03;;;;;;;;;;;;;;;17.82;100.00;97077.91;5054969;28;19925;-79
2021/08/08 03:04:31;;;;;;;;;;;;;;;18.09;100.00;97073.41;5055231;28;20840;-79
2021/08/08 03:07:00;;;;;;;;;;;;;;;17.81;100.00;97084.09;5088092;28;20272;-79
2021/08/08 03:09:28;;;;;;;;;;;;;;;17.61;100.00;97087.22;5055089;28;20275;-78
2021/08/08 03:11:55;;;;;;;;;;;;;;;17.65;100.00;97087.72;5088396;28;19925;-78
2021/08/08 03:14:23;;;;;;;;;;;;;;;17.76;100.00;97082.81;5054672;28;19925;-78
2021/08/08 03:16:52;;;;;;;;;;;;;;;18.17;100.00;97093.41;5054575;28;19929;-78
2021/08/08 03:19:24;;;;;;;;;;;;;;;18.09;100.00;97087.53;5054603;28;19964;-78
2021/08/08 03:21:53;;;;;;;;;;;;;;;17.75;100.00;97091.81;5088210;28;19931;-78
2021/08/08 03:24:21;;;;;;;;;;;;;;;17.86;100.00;97084.06;5087914;28;20368;-78
2021/08/08 03:26:49;;;;;;;;;;;;;;;17.62;100.00;97086.69;5054717;28;19925;-79
2021/08/08 03:29:17;;;;;;;;;;;;;;;18.03;100.00;97083.97;5054433;28;19925;-79
2021/08/08 03:31:46;;;;;;;;;;;;;;;18.03;100.00;97089.63;5054494;28;19937;-79
2021/08/08 03:34:15;;;;;;;;;;;;;;;18.07;100.00;97101.41;5054537;28;19931;-79
2021/08/08 03:36:42;;;;;;;;;;;;;;;18.04;100.00;97093.97;5054331;28;19929;-79
2021/08/08 03:39:10;;;;;;;;;;;;;;;18.14;100.00;97091.63;5071048;28;19932;-78
2021/08/08 03:41:37;;;;;;;;;;;;;;;17.24;100.00;97103.66;5054265;28;19925;-78
2021/08/08 03:44:05;;;;;;;;;;;;;;;16.93;100.00;97096.25;5087684;28;19924;-78
2021/08/08 03:46:32;;;;;;;;;;;;;;;17.73;100.00;97100.03;5087313;28;19931;-78
2021/08/08 03:49:01;;;;;;;;;;;;;;;17.88;100.00;97108.97;5087644;28;19925;-78
2021/08/08 03:51:28;;;;;;;;;;;;;;;17.75;100.00;97101.03;5070483;28;19967;-78
2021/08/08 03:53:56;;;;;;;;;;;;;;;17.62;100.00;97089.53;5087077;28;19925;-78
2021/08/08 03:56:23;;;;;;;;;;;;;;;17.70;100.00;97086.94;5087525;28;19925;-78
2021/08/08 03:58:50;;;;;;;;;;;;;;;17.58;100.00;97094.66;5087212;28;19931;-78
2021/08/08 04:01:18;;;;;;;;;;;;;;;17.58;100.00;97093.91;5037223;28;19932;-79
2021/08/08 04:03:45;;;;;;;;;;;;;;;17.77;100.00;97092.03;5087211;28;19925;-79
2021/08/08 04:06:12;;;;;;;;;;;;;;;17.88;100.00;97089.19;5053862;28;19928;-79
2021/08/08 04:08:39;;;;;;;;;;;;;;;17.71;100.00;97102.59;5036527;28;20087;-79
2021/08/08 04:11:13;;;;;;;;;;;;;;;17.89;100.00;97093.53;5055020;28;20023;-79
2021/08/08 04:13:42;;;;;;;;;;;;;;;18.06;100.00;97104.75;5053599;28;20380;-79
2021/08/08 04:16:09;;;;;;;;;;;;;;;17.83;100.00;97098.44;5086707;28;19925;-79
2021/08/08 04:18:36;;;;;;;;;;;;;;;17.99;100.00;97100.44;5053497;28;19928;-78
2021/08/08 04:21:04;;;;;;;;;;;;;;;18.27;100.00;97103.13;5086917;28;19931;-79
2021/08/08 04:23:31;;;;;;;;;;;;;;;18.30;100.00;97097.19;5086787;28;20019;-79
2021/08/08 04:25:58;;;;;;;;;;;;;;;18.14;100.00;97100.91;5069737;28;19928;-79
2021/08/08 04:28:26;;;;;;;;;;;;;;;17.99;100.00;97108.94;5053296;28;20019;-79
2021/08/08 04:30:53;;;;;;;;;;;;;;;17.80;100.00;97114.38;5086252;28;19925;-79
2021/08/08 04:33:21;;;;;;;;;;;;;;;17.87;100.00;97116.66;5053281;28;19925;-79
2021/08/08 04:35:48;;;;;;;;;;;;;;;17.97;100.00;97114.31;5053089;28;19924;-79
2021/08/08 04:38:18;;;;;;;;;;;;;;;17.91;100.00;97116.38;5069631;28;19983;-79
2021/08/08 04:40:46;;;;;;;;;;;;;;;18.12;100.00;97120.41;5069498;28;20295;-79
2021/08/08 04:43:14;;;;;;;;;;;;;;;17.78;100.00;97110.53;5069585;28;19926;-79
2021/08/08 04:45:42;;;;;;;;;;;;;;;18.12;100.00;97116.81;5085919;28;20575;-79
2021/08/08 04:48:10;;;;;;;;;;;;;;;17.88;100.00;97123.06;5053020;28;19947;-79
2021/08/08 04:50:37;;;;;;;;;;;;;;;18.10;100.00;97122.22;5052741;28;19932;-79
2021/08/08 04:53:05;;;;;;;;;;;;;;;18.32;100.00;97120.06;5052361;28;20268;-79
2021/08/08 04:55:33;;;;;;;;;;;;;;;17.93;100.00;97119.47;5086185;28;19936;-79
2021/08/08 04:58:02;;;;;;;;;;;;;;;17.70;100.00;97123.66;5069505;28;19932;-79
2021/08/08 05:00:30;;;;;;;;;;;;;;;18.12;100.00;97126.06;5085823;28;19959;-79
2021/08/08 05:02:57;;;;;;;;;;;;;;;18.26;100.00;97130.63;5052165;28;19928;-78
2021/08/08 05:05:25;;;;;;;;;;;;;;;18.05;100.00;97135.09;5052514;28;20253;-78
2021/08/08 05:07:52;;;;;;;;;;;;;;;18.19;100.00;97131.16;5085398;28;20376;-78
2021/08/08 05:10:24;;;;;;;;;;;;;;;18.36;100.00;97129.03;5052501;28;20394;-79
2021/08/08 05:12:54;;;;;;;;;;;;;;;18.41;100.00;97116.97;5053703;28;20019;-79
2021/08/08 05:15:22;;;;;;;;;;;;;;;18.08;100.00;97136.88;5052306;28;20434;-79
2021/08/08 05:17:51;;;;;;;;;;;;;;;17.79;100.00;97126.97;5052536;28;20031;-78
2021/08/08 05:20:19;;;;;;;;;;;;;;;18.07;100.00;97132.50;5085826;28;19931;-78
2021/08/08 05:22:46;;;;;;;;;;;;;;;18.11;100.00;97133.03;5052400;28;20410;-78
2021/08/08 05:25:15;;;;;;;;;;;;;;;18.17;100.00;97133.75;5052382;28;20414;-78
2021/08/08 05:27:42;;;;;;;;;;;;;;;18.02;100.00;97142.53;5057691;28;20365;-77
2021/08/08 05:30:12;;;;;;;;;;;;;;;18.07;100.00;97140.97;5059947;28;19998;-77
2021/08/08 05:32:40;;;;;;;;;;;;;;;18.21;100.00;97145.56;5051810;28;19925;-76
2021/08/08 05:35:07;;;;;;;;;;;;;;;18.50;100.00;97135.69;5052031;28;20442;-79
2021/08/08 05:37:35;;;;;;;;;;;;;;;18.23;100.00;97148.66;5055140;28;20368;-79
2021/08/08 05:40:07;;;;;;;;;;;;;;;18.13;100.00;97144.56;5056070;28;20019;-78
2021/08/08 05:42:46;;;;;;;;;;;;;;;18.46;100.00;97155.75;5070395;28;19974;-78
2021/08/08 05:45:14;;;;;;;;;;;;;;;18.34;100.00;97145.00;5066808;28;20284;-78
2021/08/08 05:47:42;;;;;;;;;;;;;;;18.35;100.00;97150.13;5065239;28;19932;-78
2021/08/08 05:50:09;;;;;;;;;;;;;;;18.43;100.00;97141.91;5085302;28;20022;-78
2021/08/08 05:52:37;;;;;;;;;;;;;;;18.31;100.00;97143.97;5052989;28;20323;-78
2021/08/08 05:55:04;;;;;;;;;;;;;;;18.36;100.00;97139.59;5051757;28;20012;-78
2021/08/08 05:57:31;;;;;;;;;;;;;;;18.26;100.00;97141.16;5051746;28;19967;-78
2021/08/08 05:59:58;;;;;;;;;;;;;;;18.57;100.00;97144.38;5051758;28;19933;-79
2021/08/08 06:02:26;;;;;;;;;;;;;;;18.60;100.00;97148.97;5070863;28;20380;-78
2021/08/08 06:04:55;;;;;;;;;;;;;;;18.66;100.00;97152.56;5044338;28;19925;-78
2021/08/08 06:07:22;;;;;;;;;;;;;;;18.26;100.00;97158.91;5095198;28;19960;-78
2021/08/08 06:09:49;;;;;;;;;;;;;;;17.99;100.00;97154.13;5075777;28;20392;-78
2021/08/08 06:12:16;;;;;;;;;;;;;;;18.01;100.00;97165.66;5086024;28;20003;-78
2021/08/08 06:14:43;;;;;;;;;;;;;;;17.86;100.00;97176.50;5052346;28;19932;-78
2021/08/08 06:17:11;;;;;;;;;;;;;;;18.17;100.00;97173.34;5055554;28;19929;-78
2021/08/08 06:19:38;;;;;;;;;;;;;;;18.05;100.00;97174.66;5091246;28;20023;-78
2021/08/08 06:22:06;;;;;;;;;;;;;;;18.40;100.00;97169.16;5070059;28;19960;-78
2021/08/08 06:24:35;;;;;;;;;;;;;;;18.58;100.00;97177.03;5088419;28;19924;-78
2021/08/08 06:27:03;;;;;;;;;;;;;;;18.46;100.00;97177.59;5055047;28;19929;-78
2021/08/08 06:29:30;;;;;;;;;;;;;;;18.68;100.00;97183.13;5088717;28;19932;-78
2021/08/08 06:31:57;;;;;;;;;;;;;;;18.89;100.00;97182.25;5088580;28;20405;-77
2021/08/08 06:34:24;;;;;;;;;;;;;;;18.82;100.00;97185.66;5088300;28;19968;-77
2021/08/08 06:36:52;;;;;;;;;;;;;;;18.72;100.00;97189.31;5054997;28;20137;-78
2021/08/08 06:39:19;;;;;;;;;;;;;;;18.69;100.00;97191.09;5038191;28;20020;-77
2021/08/08 06:41:47;;;;;;;;;;;;;;;18.53;100.00;97189.13;5088863;28;20055;-78
2021/08/08 06:44:17;;;;;;;;;;;;;;;18.71;100.00;97188.53;5055712;28;19932;-78
2021/08/08 06:46:44;;;;;;;;;;;;;;;18.49;100.00;97185.81;5055718;28;19932;-78
2021/08/08 06:49:13;;;;;;;;;;;;;;;18.72;100.00;97184.41;5055703;28;19929;-78
2021/08/08 06:51:40;;;;;;;;;;;;;;;18.31;100.00;97192.00;5088278;28;19925;-78
2021/08/08 06:54:07;;;;;;;;;;;;;;;18.41;100.00;97187.66;5054796;28;19929;-78
2021/08/08 06:56:34;;;;;;;;;;;;;;;18.44;100.00;97197.91;5054754;28;19932;-78
2021/08/08 06:59:02;;;;;;;;;;;;;;;18.56;100.00;97199.41;5055013;28;19935;-78
2021/08/08 07:01:30;;;;;;;;;;;;;;;18.66;100.00;97194.97;5088472;28;19924;-78
2021/08/08 07:03:57;;;;;;;;;;;;;;;18.69;100.00;97196.75;5054979;28;19928;-78
2021/08/08 07:06:25;;;;;;;;;;;;;;;18.57;100.00;97205.84;5054967;28;19932;-78
2021/08/08 07:08:52;;;;;;;;;;;;;;;18.41;100.00;97204.63;5071489;28;19929;-78
2021/08/08 07:11:19;;;;;;;;;;;;;;;18.47;100.00;97213.84;5056242;28;20054;-77
2021/08/08 07:13:46;;;;;;;;;;;;;;;18.33;100.00;97200.75;5056035;28;19925;-78
2021/08/08 07:16:14;;;;;;;;;;;;;;;18.51;100.00;97208.69;5053335;28;19980;-78
2021/08/08 07:18:43;;;;;;;;;;;;;;;18.66;100.00;97214.78;5054586;28;19944;-78
2021/08/08 07:21:10;;;;;;;;;;;;;;;18.96;100.00;97209.97;5055997;28;19924;-78
2021/08/08 07:23:38;;;;;;;;;;;;;;;19.06;100.00;97219.72;5054572;28;19925;-78
2021/08/08 07:26:05;;;;;;;;;;;;;;;19.15;100.00;97219.38;5054325;28;19925;-78
2021/08/08 07:28:32;;;;;;;;;;;;;;;19.05;100.00;97223.06;5038075;28;19929;-78
2021/08/08 07:31:00;;;;;;;;;;;;;;;18.97;100.00;97222.06;5071323;28;20380;-77
2021/08/08 07:33:28;;;;;;;;;;;;;;;19.05;100.00;97223.81;5088061;28;19931;-75
2021/08/08 07:35:56;;;;;;;;;;;;;;;18.71;100.00;97222.47;5054600;28;19925;-77
2021/08/08 07:38:24;;;;;;;;;;;;;;;18.74;100.00;97226.31;5055607;28;20315;-77
2021/08/08 07:40:51;;;;;;;;;;;;;;;18.58;100.00;97222.28;5087545;28;20384;-77
2021/08/08 07:43:25;;;;;;;;;;;;;;;18.81;100.00;97240.66;5087631;28;19924;-77
2021/08/08 07:45:52;;;;;;;;;;;;;;;18.35;100.00;97240.59;5055258;28;19932;-77
2021/08/08 07:48:20;;;;;;;;;;;;;;;18.31;100.00;97242.16;5087714;28;19935;-77
2021/08/08 07:50:47;;;;;;;;;;;;;;;18.39;100.00;97241.13;5070825;28;19932;-77
2021/08/08 07:53:15;;;;;;;;;;;;;;;17.96;100.00;97242.75;5087289;28;19924;-77
2021/08/08 07:55:43;;;;;;;;;;;;;;;18.33;100.00;97253.69;5087459;28;20302;-77
2021/08/08 07:58:10;;;;;;;;;;;;;;;18.26;100.00;97243.72;5020709;28;19925;-77
2021/08/08 08:00:37;;;;;;;;;;;;;;;18.15;100.00;97249.38;5054012;28;19929;-77
2021/08/08 08:03:05;;;;;;;;;;;;;;;17.91;100.00;97252.00;5087397;28;19925;-77
2021/08/08 08:05:32;;;;;;;;;;;;;;;17.78;100.00;97260.25;5053701;28;19929;-77
2021/08/08 08:08:00;;;;;;;;;;;;;;;17.80;100.00;97266.13;5070348;28;19925;-77
2021/08/08 08:10:31;;;;;;;;;;;;;;;17.75;100.00;97269.75;5087119;28;20023;-77
2021/08/08 08:13:00;;;;;;;;;;;;;;;17.92;100.00;97276.13;5054956;28;20039;-77
2021/08/08 08:15:28;;;;;;;;;;;;;;;18.05;100.00;97284.84;5053404;28;19933;-75
2021/08/08 08:17:55;;;;;;;;;;;;;;;18.00;100.00;97282.81;5053692;28;19967;-76
2021/08/08 08:20:23;;;;;;;;;;;;;;;17.78;100.00;97283.59;5053594;28;19935;-75
2021/08/08 08:22:50;;;;;;;;;;;;;;;17.88;100.00;97287.72;5053761;28;19970;-78
2021/08/08 08:25:18;;;;;;;;;;;;;;;17.92;100.00;97293.84;5053784;28;19931;-77
2021/08/08 08:27:46;;;;;;;;;;;;;;;18.16;100.00;97293.31;5007341;28;19932;-77
2021/08/08 08:30:13;;;;;;;;;;;;;;;18.31;100.00;97293.03;5053839;28;19925;-77
2021/08/08 08:32:41;;;;;;;;;;;;;;;18.60;100.00;97301.72;5070145;28;20027;-77
2021/08/08 08:35:09;;;;;;;;;;;;;;;18.23;100.00;97301.28;5061863;28;19952;-77
2021/08/08 08:37:37;;;;;;;;;;;;;;;18.59;100.00;97300.19;5053293;28;19964;-77
2021/08/08 08:40:05;;;;;;;;;;;;;;;18.50;100.00;97302.50;5086589;28;19925;-78
2021/08/08 08:42:33;;;;;;;;;;;;;;;18.76;100.00;97300.91;5061719;28;20015;-78
2021/08/08 08:45:01;;;;;;;;;;;;;;;18.61;100.00;97308.16;5049647;28;19932;-78
2021/08/08 08:47:29;;;;;;;;;;;;;;;18.20;100.00;97307.97;5066212;28;19924;-77
2021/08/08 08:49:58;;;;;;;;;;;;;;;18.18;100.00;97321.03;5067345;28;19924;-76
2021/08/08 08:52:26;;;;;;;;;;;;;;;18.51;100.00;97329.53;5086033;28;19947;-76
2021/08/08 08:54:54;;;;;;;;;;;;;;;18.90;100.00;97333.00;5097949;28;19932;-76
2021/08/08 08:57:23;;;;;;;;;;;;;;;18.45;100.00;97320.28;5069045;28;19935;-77
2021/08/08 08:59:53;;;;;;;;;;;;;;;19.03;100.00;97322.63;5104257;28;19929;-76
2021/08/08 09:02:21;;;;;;;;;;;;;;;19.38;100.00;97324.78;5068144;28;20011;-77
2021/08/08 09:04:48;;;;;;;;;;;;;;;19.12;100.00;97325.16;5042522;28;19925;-76
2021/08/08 09:07:16;;;;;;;;;;;;;;;19.17;100.00;97330.03;5042611;28;19925;-77
2021/08/08 09:09:44;;;;;;;;;;;;;;;19.21;100.00;97332.56;5070470;28;19924;-77
2021/08/08 09:12:19;;;;;;;;;;;;;;;19.05;100.00;97324.94;5054208;28;20015;-77
2021/08/08 09:14:54;;;;;;;;;;;;;;;18.98;100.00;97334.75;5034407;28;19925;-76
2021/08/08 09:17:22;;;;;;;;;;;;;;;19.14;100.00;97345.25;5050358;28;19924;-77
2021/08/08 09:19:57;;;;;;;;;;;;;;;19.19;100.00;97347.25;5060885;28;19929;-75
2021/08/08 09:22:27;;;;;;;;;;;;;;;19.24;100.00;97351.34;5048474;28;19929;-74
2021/08/08 09:24:54;;;;;;;;;;;;;;;19.17;100.00;97344.19;5056048;28;20590;-75
2021/08/08 09:27:35;;;;;;;;;;;;;;;19.32;100.00;97350.31;5060005;28;20273;-74
2021/08/08 09:30:03;;;;;;;;;;;;;;;19.03;100.00;97353.00;5047296;28;19924;-77
2021/08/08 09:32:32;;;;;;;;;;;;;;;19.20;100.00;97353.69;5037272;28;19925;-78
2021/08/08 09:35:05;;;;;;;;;;;;;;;19.39;100.00;97365.97;5031242;28;19932;-77
2021/08/08 09:37:32;;;;;;;;;;;;;;;19.45;100.00;97361.81;5051526;28;20298;-77
2021/08/08 09:39:59;;;;;;;;;;;;;;;19.33;100.00;97363.19;5049910;28;20003;-78
2021/08/08 09:42:27;;;;;;;;;;;;;;;19.54;100.00;97372.06;5080972;28;20376;-77
2021/08/08 09:44:56;;;;;;;;;;;;;;;19.35;100.00;97357.78;5060756;28;19928;-77
2021/08/08 09:47:43;;;;;;;;;;;;;;;19.29;100.00;97379.69;5065849;28;20143;-77
2021/08/08 09:50:18;;;;;;;;;;;;;;;19.37;100.00;97375.00;5043883;28;19925;-78
2021/08/08 09:52:49;;;;;;;;;;;;;;;19.28;100.00;97371.72;5048958;28;19933;-77
2021/08/08 09:55:23;;;;;;;;;;;;;;;19.76;100.00;97376.81;5049377;28;19932;-79
2021/08/08 09:57:50;;;;;;;;;;;;;;;19.81;100.00;97376.03;5048208;28;20311;-80
2021/08/08 10:00:25;;;;;;;;;;;;;;;19.62;100.00;97382.34;5048974;28;20016;-78
2021/08/08 10:02:53;;;;;;;;;;;;;;;18.65;100.00;97380.13;5049736;28;19929;-77
2021/08/08 10:05:22;;;;;;;;;;;;;;;18.43;100.00;97383.00;5047480;28;19960;-76
2021/08/08 10:07:49;;;;;;;;;;;;;;;18.47;100.00;97400.47;5048864;28;19935;-77
2021/08/08 10:10:17;;;;;;;;;;;;;;;18.63;100.00;97396.84;5048200;28;20012;-76
2021/08/08 10:13:07;;;;;;;;;;;;;;;18.59;100.00;97402.00;5054470;28;20284;-76
2021/08/08 10:15:41;;;;;;;;;;;;;;;17.95;100.00;97405.06;5022101;28;19926;-75
2021/08/08 10:18:12;;;;;;;;;;;;;;;17.94;100.00;97404.31;5025473;28;19988;-76
2021/08/08 10:20:40;;;;;;;;;;;;;;;18.52;100.00;97413.84;5040154;28;19926;-75
2021/08/08 10:23:12;;;;;;;;;;;;;;;18.64;100.00;97409.72;5024078;28;20373;-77
2021/08/08 10:25:40;;;;;;;;;;;;;;;18.65;100.00;97411.25;5010943;28;19932;-77
2021/08/08 10:28:07;;;;;;;;;;;;;;;18.95;100.00;97417.84;5009446;28;20448;-76
2021/08/08 10:30:35;;;;;;;;;;;;;;;19.29;100.00;97416.50;5007095;28;19964;-76
2021/08/08 10:33:04;;;;;;;;;;;;;;;19.09;100.00;97411.13;5026209;28;19936;-75
2021/08/08 10:40:02;;;;;;;;;;;;;;;19.49;100.00;97426.69;5015733;28;19928;-75
2021/08/08 10:42:39;;;;;;;;;;;;;;;19.49;100.00;97415.38;5026498;28;19988;-75
2021/08/08 10:45:07;;;;;;;;;;;;;;;18.89;100.00;97425.59;5026017;28;19933;-75
2021/08/08 10:47:34;;;;;;;;;;;;;;;18.73;100.00;97417.91;5025740;28;19925;-74
2021/08/08 10:50:12;;;;;;;;;;;;;;;18.74;100.00;97422.28;5026288;28;19987;-74
2021/08/08 10:52:42;;;;;;;;;;;;;;;19.27;100.00;97433.22;5037575;28;19964;-75
2021/08/08 10:55:22;;;;;;;;;;;;;;;19.48;100.00;97437.25;5048708;28;19931;-78
2021/08/08 10:57:50;;;;;;;;;;;;;;;19.09;100.00;97445.09;5048666;28;19928;-77
2021/08/08 11:01:24;;;;;;;;;;;;;;;19.76;100.00;97439.16;5106905;27;19941;-79
2021/08/08 11:03:55;;;;;;;;;;;;;;;19.17;100.00;97434.78;5140581;27;19923;-78
2021/08/08 11:06:31;;;;;;;;;;;;;;;19.25;100.00;97441.44;5088477;28;19925;-79
2021/08/08 11:08:59;;;;;;;;;;;;;;;18.90;100.00;97455.41;5087199;28;19935;-78
2021/08/08 11:11:30;;;;;;;;;;;;;;;18.79;100.00;97452.63;5131729;27;20283;-80
2021/08/08 11:14:14;;;;;;;;;;;;;;;18.77;100.00;97463.69;5117770;28;19924;-80
2021/08/08 11:16:43;;;;;;;;;;;;;;;19.32;100.00;97466.41;5103357;28;20322;-80
2021/08/08 11:19:10;;;;;;;;;;;;;;;19.74;100.00;97465.19;5093028;28;20337;-80
2021/08/08 11:21:38;;;;;;;;;;;;;;;19.43;100.00;97477.69;5101097;28;20023;-80
2021/08/08 11:24:08;;;;;;;;;;;;;;;19.60;100.00;97484.06;5107996;28;19932;-80
2021/08/08 11:26:36;;;;;;;;;;;;;;;18.79;100.00;97491.47;5093076;28;19925;-79
2021/08/08 11:29:04;;;;;;;;;;;;;;;18.85;100.00;97478.84;5107631;28;19928;-79
2021/08/08 11:31:33;;;;;;;;;;;;;;;18.40;100.00;97491.47;5105400;28;19935;-79
2021/08/08 11:34:02;;;;;;;;;;;;;;;18.45;100.00;97493.53;5099001;28;19972;-79
2021/08/08 11:36:31;;;;;;;;;;;;;;;18.34;100.00;97499.16;5100679;28;19924;-79
2021/08/08 11:39:00;;;;;;;;;;;;;;;18.58;100.00;97501.50;5106472;28;20573;-79
2021/08/08 11:41:28;;;;;;;;;;;;;;;19.14;100.00;97503.75;5105689;28;19925;-79
2021/08/08 11:44:06;;;;;;;;;;;;;;;18.72;100.00;97489.91;5102027;28;19932;-81
2021/08/08 11:46:34;;;;;;;;;;;;;;;19.01;100.00;97500.69;5085942;28;19924;-79
2021/08/08 11:49:20;;;;;;;;;;;;;;;19.35;100.00;97499.34;5092248;28;19928;-80
2021/08/08 11:51:56;;;;;;;;;;;;;;;19.98;100.00;97509.91;5102751;28;19925;-80
2021/08/08 11:54:25;;;;;;;;;;;;;;;19.17;100.00;97502.72;5105061;28;20254;-80
2021/08/08 11:56:52;;;;;;;;;;;;;;;18.91;100.00;97505.09;5086922;28;19938;-80
2021/08/08 11:59:25;;;;;;;;;;;;;;;18.82;100.00;97521.56;5092139;28;19931;-79
2021/08/08 12:01:55;;;;;;;;;;;;;;;19.05;100.00;97517.41;5082700;28;19931;-79
2021/08/08 12:04:23;;;;;;;;;;;;;;;19.12;100.00;97516.88;5060743;28;19932;-80
2021/08/08 12:06:51;;;;;;;;;;;;;;;19.34;100.00;97523.28;5064062;28;19925;-79
2021/08/08 12:09:18;;;;;;;;;;;;;;;20.01;100.00;97514.53;5084912;28;19952;-80
2021/08/08 12:11:50;;;;;;;;;;;;;;;19.48;100.00;97505.22;5077930;28;19924;-76
2021/08/08 12:14:27;;;;;;;;;;;;;;;19.40;100.00;97504.22;5058537;28;19960;-78
2021/08/08 12:16:59;;;;;;;;;;;;;;;19.76;100.00;97518.50;5074963;28;19925;-76
2021/08/08 12:19:30;;;;;;;;;;;;;;;19.72;100.00;97509.50;5073375;28;19931;-77
2021/08/08 12:22:08;;;;;;;;;;;;;;;19.52;100.00;97528.38;5070879;28;19963;-78
2021/08/08 12:24:37;;;;;;;;;;;;;;;19.79;100.00;97523.13;5064093;28;19928;-78
2021/08/08 12:27:04;;;;;;;;;;;;;;;19.72;100.00;97507.44;5082883;28;20015;-80
2021/08/08 12:29:34;;;;;;;;;;;;;;;20.05;100.00;97512.19;5042467;28;19924;-79
2021/08/08 12:32:14;;;;;;;;;;;;;;;20.19;100.00;97516.78;5084488;28;19924;-79
2021/08/08 12:34:42;;;;;;;;;;;;;;;20.13;100.00;97542.31;5082160;28;19974;-79
2021/08/08 12:37:13;;;;;;;;;;;;;;;20.44;100.00;97526.91;5081954;28;20651;-79
2021/08/08 12:39:42;;;;;;;;;;;;;;;20.05;100.00;97540.53;5074251;28;19966;-80
2021/08/08 12:42:20;;;;;;;;;;;;;;;19.81;100.00;97531.88;5074456;28;19924;-80
2021/08/08 12:44:47;;;;;;;;;;;;;;;18.72;100.00;97548.56;5075952;28;20290;-79
2021/08/08 12:47:24;;;;;;;;;;;;;;;18.58;100.00;97561.69;5053311;28;19931;-78
2021/08/08 12:49:52;;;;;;;;;;;;;;;18.56;100.00;97572.72;5095230;28;20014;-79